createdAt,value
2023-03-29T00:00:08.133Z,3.10
2023-03-29T00:02:35.808Z,2.90
2023-03-29T00:05:05.239Z,3.00
2023-03-29T00:07:33.891Z,2.83
2023-03-29T00:10:01.970Z,2.87
2023-03-29T00:12:29.852Z,2.80
2023-03-29T00:14:57.767Z,2.60
2023-03-29T00:17:25.380Z,2.80
2023-03-29T00:19:53.082Z,2.87
2023-03-29T00:22:22.290Z,2.70
2023-03-29T00:24:54.282Z,2.40
2023-03-29T00:27:22.164Z,2.40
2023-03-29T00:29:49.643Z,2.93
2023-03-29T00:32:17.222Z,2.70
2023-03-29T00:34:46.062Z,2.60
2023-03-29T00:37:14.742Z,2.43
2023-03-29T00:39:44.582Z,2.70
2023-03-29T00:42:13.733Z,3.20
2023-03-29T00:45:04.040Z,3.60
2023-03-29T00:47:37.489Z,3.20
2023-03-29T00:50:12.336Z,3.20
2023-03-29T00:52:42.268Z,2.93
2023-03-29T00:55:15.719Z,3.20
2023-03-29T00:57:46.403Z,2.90
2023-03-29T01:00:20.866Z,3.17
2023-03-29T01:02:54.104Z,2.70
2023-03-29T01:05:27.125Z,3.50
2023-03-29T01:07:59.705Z,2.63
2023-03-29T01:10:33.963Z,3.17
2023-03-29T01:13:09.405Z,2.80
2023-03-29T01:15:39.571Z,3.10
2023-03-29T01:18:07.373Z,2.97
2023-03-29T01:20:49.015Z,3.33
2023-03-29T01:23:46.921Z,2.90
2023-03-29T01:26:24.901Z,3.50
2023-03-29T01:28:59.472Z,3.43
2023-03-29T01:31:30.993Z,3.47
2023-03-29T01:34:04.305Z,3.17
2023-03-29T01:36:37.928Z,3.40
2023-03-29T01:39:07.419Z,2.70
2023-03-29T01:41:42.498Z,2.60
2023-03-29T01:44:16.475Z,2.63
2023-03-29T01:46:47.868Z,2.90
2023-03-29T01:49:22.813Z,2.93
2023-03-29T01:51:54.863Z,2.60
2023-03-29T01:54:28.056Z,3.30
2023-03-29T01:56:57.438Z,2.90
2023-03-29T01:59:29.352Z,2.97
2023-03-29T02:02:00.486Z,3.47
2023-03-29T02:04:31.619Z,3.30
2023-03-29T02:07:00.806Z,3.67
2023-03-29T02:09:30.187Z,3.33
2023-03-29T02:12:00.340Z,3.10
2023-03-29T02:14:30.372Z,3.53
2023-03-29T02:16:57.910Z,3.23
2023-03-29T02:19:27.907Z,3.20
2023-03-29T02:22:01.862Z,3.50
2023-03-29T02:24:32.853Z,3.40
2023-03-29T02:27:01.411Z,3.70
2023-03-29T02:29:30.586Z,3.97
2023-03-29T02:32:05.009Z,3.80
2023-03-29T02:34:37.511Z,4.13
2023-03-29T02:37:10.256Z,4.10
2023-03-29T02:39:39.484Z,3.43
2023-03-29T02:42:07.649Z,4.20
2023-03-29T02:44:42.534Z,4.40
2023-03-29T02:47:17.046Z,4.27
2023-03-29T02:49:45.008Z,4.47
2023-03-29T02:52:16.904Z,4.90
2023-03-29T02:54:46.553Z,5.30
2023-03-29T02:57:14.060Z,4.67
2023-03-29T02:59:44.079Z,5.43
2023-03-29T03:02:13.540Z,7.20
2023-03-29T03:04:41.370Z,5.47
2023-03-29T03:07:09.306Z,6.53
2023-03-29T03:09:36.907Z,6.73
2023-03-29T03:12:04.531Z,5.33
2023-03-29T03:14:32.000Z,6.60
2023-03-29T03:17:03.086Z,8.13
2023-03-29T03:19:32.260Z,9.03
2023-03-29T03:21:59.764Z,9.40
2023-03-29T03:24:27.978Z,9.27
2023-03-29T03:26:55.470Z,10.30
2023-03-29T03:29:23.220Z,8.47
2023-03-29T03:31:53.833Z,8.60
2023-03-29T03:34:23.808Z,9.43
2023-03-29T03:36:51.340Z,9.43
2023-03-29T03:39:18.862Z,9.57
2023-03-29T03:41:47.369Z,8.23
2023-03-29T03:44:14.862Z,12.73
2023-03-29T03:46:42.328Z,10.50
2023-03-29T03:49:09.843Z,11.30
2023-03-29T03:51:38.684Z,11.60
2023-03-29T03:54:06.753Z,19.43
2023-03-29T03:56:34.242Z,64.27
2023-03-29T03:59:02.063Z,55.77
2023-03-29T04:01:29.516Z,50.80
2023-03-29T04:03:57.038Z,34.77
2023-03-29T04:06:25.357Z,24.33
2023-03-29T04:08:54.223Z,13.40
2023-03-29T04:11:21.761Z,9.57
2023-03-29T04:13:49.767Z,12.87
2023-03-29T04:16:17.327Z,10.30
2023-03-29T04:18:44.922Z,16.33
2023-03-29T04:21:12.595Z,39.53
2023-03-29T04:23:40.138Z,45.73
2023-03-29T04:26:09.031Z,59.13
2023-03-29T04:28:36.552Z,53.93
2023-03-29T04:31:04.382Z,52.20
2023-03-29T04:33:32.234Z,66.83
2023-03-29T04:36:00.390Z,63.77
2023-03-29T04:38:27.983Z,77.27
2023-03-29T04:40:55.852Z,79.23
2023-03-29T04:43:24.852Z,71.77
2023-03-29T04:45:52.315Z,92.93
2023-03-29T04:48:19.897Z,76.03
2023-03-29T04:50:47.645Z,76.97
2023-03-29T04:53:15.242Z,93.27
2023-03-29T04:55:42.729Z,101.27
2023-03-29T04:58:10.203Z,92.50
2023-03-29T05:00:39.105Z,83.93
2023-03-29T05:03:07.431Z,85.30
2023-03-29T05:05:34.964Z,95.03
2023-03-29T05:08:03.225Z,78.30
2023-03-29T05:10:30.885Z,93.83
2023-03-29T05:12:58.336Z,82.07
2023-03-29T05:15:26.107Z,95.37
2023-03-29T05:17:54.924Z,32.03
2023-03-29T05:20:22.754Z,25.27
2023-03-29T05:22:50.210Z,13.23
2023-03-29T05:25:18.715Z,12.33
2023-03-29T05:27:46.636Z,26.97
2023-03-29T05:30:15.653Z,16.50
2023-03-29T05:32:43.269Z,20.67
2023-03-29T05:35:12.385Z,29.27
2023-03-29T05:37:39.974Z,109.87
2023-03-29T05:40:10.295Z,104.27
2023-03-29T05:42:38.575Z,47.93
2023-03-29T05:45:07.398Z,20.13
2023-03-29T05:47:34.868Z,15.50
2023-03-29T05:50:02.338Z,22.23
2023-03-29T05:52:31.513Z,27.63
2023-03-29T05:54:58.977Z,17.57
2023-03-29T05:57:27.819Z,11.43
2023-03-29T05:59:56.412Z,13.33
2023-03-29T06:02:25.583Z,12.73
2023-03-29T06:04:53.894Z,11.27
2023-03-29T06:07:23.318Z,13.33
2023-03-29T06:09:52.161Z,11.43
2023-03-29T06:12:21.782Z,13.13
2023-03-29T06:14:49.276Z,12.70
2023-03-29T06:17:17.417Z,11.80
2023-03-29T06:19:45.243Z,14.67
2023-03-29T06:22:14.827Z,11.87
2023-03-29T06:24:42.449Z,12.87
2023-03-29T06:27:11.259Z,12.67
2023-03-29T06:29:38.753Z,14.33
2023-03-29T06:32:06.637Z,13.80
2023-03-29T06:34:36.061Z,14.17
2023-03-29T06:37:05.820Z,12.77
2023-03-29T06:39:33.577Z,14.37
2023-03-29T06:42:07.347Z,14.57
2023-03-29T06:44:42.093Z,12.63
2023-03-29T06:47:09.574Z,12.50
2023-03-29T06:49:37.095Z,13.20
2023-03-29T06:52:04.892Z,13.10
2023-03-29T06:54:33.477Z,14.60
2023-03-29T06:57:01.340Z,13.87
2023-03-29T06:59:28.868Z,11.50
2023-03-29T07:01:58.430Z,15.97
2023-03-29T07:04:26.083Z,12.77
2023-03-29T07:07:01.410Z,12.77
2023-03-29T07:09:30.762Z,14.20
2023-03-29T07:11:58.747Z,15.47
2023-03-29T07:14:28.807Z,16.10
2023-03-29T07:16:59.292Z,13.83
2023-03-29T07:19:28.664Z,13.80
2023-03-29T07:21:57.016Z,13.07
2023-03-29T07:24:24.476Z,13.87
2023-03-29T07:27:03.321Z,13.23
2023-03-29T07:29:32.078Z,13.50
2023-03-29T07:32:00.870Z,13.30
2023-03-29T07:34:30.012Z,13.03
2023-03-29T07:36:57.692Z,11.90
2023-03-29T07:39:26.109Z,12.70
2023-03-29T07:41:53.587Z,10.23
2023-03-29T07:44:21.543Z,25.73
2023-03-29T07:46:49.473Z,19.40
2023-03-29T07:49:19.809Z,14.70
2023-03-29T07:51:49.206Z,14.43
2023-03-29T07:54:16.848Z,20.30
2023-03-29T07:56:44.463Z,12.90
2023-03-29T07:59:11.958Z,14.60
2023-03-29T08:01:40.823Z,11.87
2023-03-29T08:04:09.585Z,11.43
2023-03-29T08:06:38.586Z,12.93
2023-03-29T08:09:06.197Z,11.93
2023-03-29T08:11:33.686Z,10.47
2023-03-29T08:14:01.152Z,10.53
2023-03-29T08:16:28.682Z,10.53
2023-03-29T08:18:56.196Z,10.83
2023-03-29T08:21:23.691Z,11.53
2023-03-29T08:23:52.545Z,11.13
2023-03-29T08:26:20.156Z,12.93
2023-03-29T08:28:47.656Z,12.87
2023-03-29T08:31:16.581Z,17.00
2023-03-29T08:33:44.392Z,18.87
2023-03-29T08:36:12.382Z,22.83
2023-03-29T08:38:39.886Z,19.77
2023-03-29T08:41:27.152Z,16.90
2023-03-29T08:44:07.910Z,10.60
2023-03-29T08:46:45.087Z,13.30
2023-03-29T08:49:13.320Z,19.17
2023-03-29T08:51:45.316Z,17.13
2023-03-29T08:54:18.097Z,20.73
2023-03-29T08:56:47.841Z,104.80
2023-03-29T08:59:20.888Z,66.27
2023-03-29T09:01:51.027Z,10.77
2023-03-29T09:04:22.754Z,36.50
2023-03-29T09:06:50.678Z,6.35
2023-03-29T09:09:20.710Z,8.93
2023-03-29T09:12:02.681Z,5.97
2023-03-29T09:14:41.875Z,9.73
2023-03-29T09:17:21.449Z,9.48
2023-03-29T09:19:55.963Z,9.93
2023-03-29T09:22:30.322Z,6.22
2023-03-29T09:25:10.014Z,6.28
2023-03-29T09:27:48.920Z,6.60
2023-03-29T09:30:25.859Z,6.90
2023-03-29T09:32:54.805Z,6.53
2023-03-29T09:35:26.096Z,5.40
2023-03-29T09:37:55.189Z,5.65
2023-03-29T09:40:27.648Z,4.88
2023-03-29T09:42:57.973Z,4.75
2023-03-29T09:45:25.795Z,5.78
2023-03-29T09:47:57.674Z,5.20
2023-03-29T09:50:31.962Z,6.53
2023-03-29T09:52:59.806Z,7.00
2023-03-29T09:55:30.211Z,6.72
2023-03-29T09:58:02.627Z,8.25
2023-03-29T10:00:30.171Z,10.02
2023-03-29T10:03:00.024Z,9.52
2023-03-29T10:05:37.692Z,10.00
2023-03-29T10:08:19.820Z,9.88
2023-03-29T10:10:48.392Z,7.72
2023-03-29T10:13:23.066Z,6.57
2023-03-29T10:16:09.876Z,6.30
2023-03-29T10:18:42.556Z,6.38
2023-03-29T10:21:14.388Z,6.20
2023-03-29T10:23:42.581Z,7.82
2023-03-29T10:26:15.662Z,5.97
2023-03-29T10:28:44.705Z,8.05
2023-03-29T10:31:19.134Z,5.93
2023-03-29T10:33:53.148Z,5.95
2023-03-29T10:36:20.954Z,8.32
2023-03-29T10:38:49.046Z,10.75
2023-03-29T10:41:18.468Z,5.85
2023-03-29T10:43:50.812Z,6.30
2023-03-29T10:46:23.453Z,8.75
2023-03-29T10:48:52.836Z,10.38
2023-03-29T10:51:20.581Z,9.40
2023-03-29T10:53:48.204Z,4.32
2023-03-29T10:56:34.983Z,3.58
2023-03-29T10:59:17.838Z,5.85
2023-03-29T11:01:58.807Z,3.03
2023-03-29T11:04:37.259Z,3.53
2023-03-29T11:07:27.140Z,3.08
2023-03-29T11:10:11.714Z,2.92
2023-03-29T11:12:45.258Z,3.83
2023-03-29T11:15:30.118Z,2.95
2023-03-29T11:18:18.667Z,3.28
2023-03-29T11:20:55.178Z,3.50
2023-03-29T11:23:37.490Z,3.75
2023-03-29T11:26:13.938Z,2.75
2023-03-29T11:28:49.709Z,4.20
2023-03-29T11:31:39.090Z,3.58
2023-03-29T11:34:27.462Z,3.40
2023-03-29T11:37:02.553Z,3.28
2023-03-29T11:39:41.619Z,2.80
2023-03-29T11:42:16.574Z,4.57
2023-03-29T11:44:47.168Z,3.72
2023-03-29T11:47:19.612Z,5.45
2023-03-29T11:49:51.750Z,4.03
2023-03-29T11:52:24.483Z,3.42
2023-03-29T11:54:58.322Z,3.05
2023-03-29T11:57:29.943Z,2.65
2023-03-29T12:00:05.129Z,3.15
2023-03-29T12:02:39.366Z,3.83
2023-03-29T12:05:14.409Z,3.28
2023-03-29T12:07:46.743Z,2.75
2023-03-29T12:10:20.350Z,2.70
2023-03-29T12:12:53.857Z,2.58
2023-03-29T12:15:24.850Z,2.55
2023-03-29T12:18:03.532Z,2.40
2023-03-29T12:20:34.601Z,2.90
2023-03-29T12:23:02.676Z,2.72
2023-03-29T12:25:35.509Z,6.72
2023-03-29T12:28:17.169Z,2.70
2023-03-29T12:30:55.333Z,2.83
2023-03-29T12:33:41.789Z,3.03
2023-03-29T12:36:20.328Z,2.58
2023-03-29T12:38:52.338Z,2.58
2023-03-29T12:41:21.893Z,3.20
2023-03-29T12:43:50.374Z,2.60
2023-03-29T12:46:20.209Z,3.35
2023-03-29T12:48:52.067Z,3.30
2023-03-29T12:51:22.787Z,2.92
2023-03-29T12:53:53.293Z,2.70
2023-03-29T12:56:23.674Z,3.15
2023-03-29T12:58:56.365Z,2.80
2023-03-29T13:01:28.264Z,6.63
2023-03-29T13:04:16.808Z,3.00
2023-03-29T13:07:05.968Z,2.72
2023-03-29T13:09:36.707Z,2.50
2023-03-29T13:12:14.449Z,3.17
2023-03-29T13:14:44.982Z,2.58
2023-03-29T13:17:25.520Z,2.90
2023-03-29T13:20:09.233Z,2.70
2023-03-29T13:22:48.266Z,2.95
2023-03-29T13:25:29.742Z,2.70
2023-03-29T13:28:04.422Z,2.85
2023-03-29T13:30:45.392Z,2.75
2023-03-29T13:33:31.451Z,2.65
2023-03-29T13:36:07.475Z,2.58
2023-03-29T13:38:46.413Z,2.80
2023-03-29T13:41:28.674Z,2.20
2023-03-29T13:43:57.558Z,2.70
2023-03-29T13:46:36.332Z,3.15
2023-03-29T13:49:16.293Z,3.35
2023-03-29T13:52:05.458Z,2.40
2023-03-29T13:54:37.040Z,3.50
2023-03-29T13:57:09.802Z,2.85
2023-03-29T13:59:44.046Z,2.63
2023-03-29T14:02:20.982Z,2.55
2023-03-29T14:04:52.081Z,19.92
2023-03-29T14:07:26.118Z,21.10
2023-03-29T14:09:56.097Z,25.33
2023-03-29T14:12:23.679Z,29.70
2023-03-29T14:15:03.543Z,44.92
2023-03-29T14:17:31.645Z,51.40
2023-03-29T14:20:01.480Z,45.80
2023-03-29T14:22:34.547Z,34.58
2023-03-29T14:25:06.185Z,25.73
2023-03-29T14:27:37.038Z,15.68
2023-03-29T14:30:20.074Z,9.50
2023-03-29T14:32:49.777Z,3.92
2023-03-29T14:35:17.498Z,4.85
2023-03-29T14:37:48.901Z,8.57
2023-03-29T14:40:19.813Z,4.47
2023-03-29T14:42:49.021Z,2.97
2023-03-29T14:45:19.454Z,4.07
2023-03-29T14:47:47.970Z,4.55
2023-03-29T14:50:22.358Z,3.17
2023-03-29T14:52:52.610Z,3.75
2023-03-29T14:55:23.675Z,3.10
2023-03-29T14:57:52.683Z,4.32
2023-03-29T15:00:26.819Z,2.55
2023-03-29T15:02:57.711Z,3.90
2023-03-29T15:05:32.909Z,4.40
2023-03-29T15:08:03.672Z,5.97
2023-03-29T15:10:34.246Z,7.88
2023-03-29T15:13:03.455Z,6.00
2023-03-29T15:15:34.543Z,4.55
2023-03-29T15:18:03.546Z,5.05
2023-03-29T15:20:34.728Z,5.32
2023-03-29T15:23:05.372Z,5.40
2023-03-29T15:25:37.207Z,4.80
2023-03-29T15:28:05.321Z,4.95
2023-03-29T15:30:35.363Z,5.47
2023-03-29T15:33:16.325Z,5.32
2023-03-29T15:35:50.413Z,5.68
2023-03-29T15:38:23.367Z,5.47
2023-03-29T15:40:55.439Z,6.30
2023-03-29T15:43:23.552Z,5.72
2023-03-29T15:45:51.132Z,5.55
2023-03-29T15:48:21.456Z,5.85
2023-03-29T15:50:49.027Z,5.68
2023-03-29T15:53:18.474Z,5.78
2023-03-29T15:55:50.913Z,5.68
2023-03-29T15:58:21.370Z,5.38
2023-03-29T16:00:54.731Z,5.32
2023-03-29T16:03:24.471Z,5.65
2023-03-29T16:05:54.121Z,5.80
2023-03-29T16:08:21.614Z,6.53
2023-03-29T16:10:50.426Z,7.13
2023-03-29T16:13:17.886Z,6.50
2023-03-29T16:15:45.539Z,6.78
2023-03-29T16:18:13.301Z,6.97
2023-03-29T16:20:41.500Z,7.63
2023-03-29T16:23:09.706Z,8.35
2023-03-29T16:25:39.834Z,9.63
2023-03-29T16:28:09.998Z,6.90
2023-03-29T16:30:38.469Z,8.32
2023-03-29T16:33:08.465Z,8.25
2023-03-29T16:35:38.469Z,9.55
2023-03-29T16:38:06.351Z,8.10
2023-03-29T16:40:34.276Z,8.38
2023-03-29T16:43:02.657Z,8.07
2023-03-29T16:45:31.741Z,8.68
2023-03-29T16:47:59.357Z,8.38
2023-03-29T16:50:27.029Z,8.63
2023-03-29T16:52:54.563Z,8.55
2023-03-29T16:55:22.046Z,8.38
2023-03-29T16:57:50.869Z,8.88
2023-03-29T17:00:20.190Z,8.30
2023-03-29T17:02:50.498Z,7.30
2023-03-29T17:05:18.877Z,7.47
2023-03-29T17:07:46.840Z,7.85
2023-03-29T17:10:15.440Z,8.85
2023-03-29T17:12:42.928Z,9.02
2023-03-29T17:15:11.281Z,8.68
2023-03-29T17:17:38.894Z,8.55
2023-03-29T17:20:11.888Z,8.48
2023-03-29T17:22:39.520Z,8.18
2023-03-29T17:25:08.492Z,9.30
2023-03-29T17:27:37.297Z,9.32
2023-03-29T17:30:05.550Z,10.70
2023-03-29T17:32:33.325Z,9.85
2023-03-29T17:35:00.862Z,15.25
2023-03-29T17:37:30.129Z,15.55
2023-03-29T17:39:57.606Z,15.73
2023-03-29T17:42:25.261Z,16.10
2023-03-29T17:44:52.743Z,14.85
2023-03-29T17:47:20.592Z,25.45
2023-03-29T17:49:48.078Z,21.08
2023-03-29T17:52:15.550Z,42.70
2023-03-29T17:54:44.422Z,28.23
2023-03-29T17:57:12.059Z,24.30
2023-03-29T17:59:39.682Z,25.40
2023-03-29T18:02:07.700Z,19.17
2023-03-29T18:04:35.555Z,23.17
2023-03-29T18:07:03.028Z,21.13
2023-03-29T18:09:31.136Z,16.87
2023-03-29T18:12:00.031Z,13.53
2023-03-29T18:14:27.512Z,12.87
2023-03-29T18:16:55.743Z,11.13
2023-03-29T18:19:23.455Z,16.00
2023-03-29T18:21:51.025Z,100.33
2023-03-29T18:24:18.553Z,69.57
2023-03-29T18:26:46.043Z,30.90
2023-03-29T18:29:15.434Z,23.77
2023-03-29T18:31:43.519Z,27.03
2023-03-29T18:34:11.112Z,139.83
2023-03-29T18:36:38.708Z,124.07
2023-03-29T18:39:06.315Z,104.63
2023-03-29T18:41:35.536Z,74.10
2023-03-29T18:44:03.024Z,96.33
2023-03-29T18:46:33.110Z,84.57
2023-03-29T18:49:02.041Z,96.90
2023-03-29T18:51:29.642Z,105.50
2023-03-29T18:53:57.345Z,95.63
2023-03-29T18:56:24.822Z,78.67
2023-03-29T18:58:52.374Z,61.50
2023-03-29T19:01:19.906Z,48.93
2023-03-29T19:03:49.083Z,38.43
2023-03-29T19:06:16.810Z,34.37
2023-03-29T19:08:44.329Z,37.70
2023-03-29T19:11:14.178Z,37.50
2023-03-29T19:13:42.238Z,30.67
2023-03-29T19:16:10.266Z,92.77
2023-03-29T19:18:37.796Z,27.33
2023-03-29T19:21:06.903Z,25.80
2023-03-29T19:23:34.453Z,15.97
2023-03-29T19:26:03.689Z,14.90
2023-03-29T19:28:32.087Z,14.23
2023-03-29T19:31:01.515Z,15.57
2023-03-29T19:33:29.317Z,14.50
2023-03-29T19:35:57.173Z,19.57
2023-03-29T19:38:26.264Z,25.23
2023-03-29T19:40:53.775Z,24.77
2023-03-29T19:43:21.433Z,20.50
2023-03-29T19:45:50.727Z,21.23
2023-03-29T19:48:23.420Z,17.00
2023-03-29T19:50:51.396Z,19.23
2023-03-29T19:53:19.008Z,16.53
2023-03-29T19:55:48.646Z,22.27
2023-03-29T19:58:16.128Z,20.63
2023-03-29T20:00:43.603Z,20.80
2023-03-29T20:03:11.244Z,18.57
2023-03-29T20:05:39.708Z,15.03
2023-03-29T20:08:07.485Z,20.20
2023-03-29T20:10:36.796Z,19.30
2023-03-29T20:13:06.483Z,25.13
2023-03-29T20:15:36.011Z,23.87
2023-03-29T20:18:03.573Z,29.60
2023-03-29T20:20:31.674Z,27.53
2023-03-29T20:23:04.516Z,29.33
2023-03-29T20:25:33.040Z,27.07
2023-03-29T20:28:00.598Z,28.00
2023-03-29T20:30:29.675Z,27.53
2023-03-29T20:32:57.453Z,22.43
2023-03-29T20:35:25.545Z,18.20
2023-03-29T20:37:53.018Z,20.83
2023-03-29T20:40:20.751Z,23.70
2023-03-29T20:42:48.865Z,25.30
2023-03-29T20:45:19.259Z,29.17
2023-03-29T20:47:55.873Z,17.73
2023-03-29T20:50:30.074Z,18.57
2023-03-29T20:53:02.043Z,18.50
2023-03-29T20:55:30.358Z,17.73
2023-03-29T20:58:00.662Z,18.93
2023-03-29T21:00:31.444Z,17.00
2023-03-29T21:03:00.526Z,16.97
2023-03-29T21:05:29.589Z,19.80
2023-03-29T21:07:57.330Z,22.37
2023-03-29T21:10:26.318Z,24.43
2023-03-29T21:12:55.066Z,32.77
2023-03-29T21:15:22.584Z,30.00
2023-03-29T21:17:50.129Z,34.13
2023-03-29T21:20:19.816Z,28.63
2023-03-29T21:22:47.323Z,28.53
2023-03-29T21:25:15.787Z,29.70
2023-03-29T21:27:43.728Z,28.43
2023-03-29T21:30:11.852Z,27.93
2023-03-29T21:32:39.420Z,31.23
2023-03-29T21:35:07.970Z,33.47
2023-03-29T21:37:36.805Z,33.40
2023-03-29T21:40:06.440Z,32.13
2023-03-29T21:42:34.900Z,33.40
2023-03-29T21:45:02.615Z,32.43
2023-03-29T21:47:30.912Z,30.37
2023-03-29T21:49:58.431Z,29.03
2023-03-29T21:52:26.046Z,29.27
2023-03-29T21:54:54.890Z,32.90
2023-03-29T21:57:22.400Z,29.93
2023-03-29T21:59:49.994Z,25.50
2023-03-29T22:02:17.490Z,24.30
2023-03-29T22:04:45.163Z,24.67
2023-03-29T22:07:12.636Z,22.93
2023-03-29T22:09:42.204Z,24.03
2023-03-29T22:12:11.988Z,27.37
2023-03-29T22:14:39.508Z,32.13
2023-03-29T22:17:07.063Z,29.10
2023-03-29T22:19:38.755Z,30.53
2023-03-29T22:22:07.238Z,33.33
2023-03-29T22:24:34.752Z,32.17
2023-03-29T22:27:02.548Z,32.57
2023-03-29T22:29:31.402Z,32.03
2023-03-29T22:31:58.913Z,41.40
2023-03-29T22:34:26.483Z,31.97
2023-03-29T22:36:54.002Z,41.10
2023-03-29T22:39:21.476Z,64.67
2023-03-29T22:41:48.939Z,77.53
2023-03-29T22:44:16.416Z,60.33
2023-03-29T22:46:45.477Z,75.03
2023-03-29T22:49:13.160Z,83.87
2023-03-29T22:51:40.646Z,40.33
2023-03-29T22:54:08.688Z,34.90
2023-03-29T22:56:36.244Z,33.93
2023-03-29T22:59:03.748Z,35.17
2023-03-29T23:01:31.294Z,36.73
2023-03-29T23:04:00.227Z,40.83
2023-03-29T23:06:27.806Z,28.63
2023-03-29T23:08:55.390Z,28.23
2023-03-29T23:11:22.948Z,30.53
2023-03-29T23:13:52.444Z,33.83
2023-03-29T23:16:20.708Z,35.73
2023-03-29T23:18:48.433Z,31.73
2023-03-29T23:21:17.557Z,27.17
2023-03-29T23:23:45.045Z,25.10
2023-03-29T23:26:12.605Z,24.63
2023-03-29T23:28:41.029Z,22.77
2023-03-29T23:31:10.687Z,25.17
2023-03-29T23:33:40.330Z,28.07
2023-03-29T23:36:10.732Z,27.90
2023-03-29T23:38:40.667Z,28.07
2023-03-29T23:41:10.799Z,27.20
2023-03-29T23:43:40.286Z,25.87
2023-03-29T23:46:09.629Z,27.07
2023-03-29T23:48:37.949Z,25.33
2023-03-29T23:51:07.737Z,25.63
2023-03-29T23:53:35.301Z,28.57
2023-03-29T23:56:06.146Z,26.83
2023-03-29T23:58:36.765Z,29.03
